Time;durP1;ratioP1;P1;durP2;ratioP2;P2;SDS_P1;SDS_P2;PMS_P1;PMS_P2;Temp;Humidity;BMP_temperature;BMP_pressure;BME280_temperature;BME280_humidity;BME280_pressure;Samples;Min_cycle;Max_cycle;Signal;HPM_P1;HPM_P2
2020/12/15 00:02:22;389576.00;1.30;671.89;38298.00;0.13;66.94;;;;;10.80;1.00;;;;;;2288972;60;1051;-87
2020/12/15 00:04:50;300135.00;1.00;518.15;0.00;0.00;0.62;;;;;10.70;1.00;;;;;;2288942;60;1046;-86
2020/12/15 00:07:16;400113.00;1.33;690.00;0.00;0.00;0.62;;;;;10.10;1.00;;;;;;2288892;60;1039;-86
2020/12/15 00:09:43;582563.00;1.94;1004.12;48921.00;0.16;85.32;;;;;9.80;1.00;;;;;;2288862;60;2009;-86
2020/12/15 00:12:09;324794.00;1.08;560.54;0.00;0.00;0.62;;;;;10.30;1.00;;;;;;2280212;61;999;-86
2020/12/15 00:14:36;188978.00;0.63;326.95;0.00;0.00;0.62;;;;;10.60;1.00;;;;;;2280296;61;1076;-87
2020/12/15 00:17:02;149335.00;0.50;258.66;0.00;0.00;0.62;;;;;11.20;1.00;;;;;;2280254;61;1031;-86
2020/12/15 00:19:29;134030.00;0.45;232.28;0.00;0.00;0.62;;;;;11.90;1.00;;;;;;2280168;61;1427;-89
2020/12/15 00:21:56;168744.00;0.56;292.10;0.00;0.00;0.62;;;;;12.30;1.00;;;;;;2280152;61;1709;-87
2020/12/15 00:24:23;279171.00;0.93;482.11;0.00;0.00;0.62;;;;;12.20;1.00;;;;;;2280184;61;1043;-87
2020/12/15 00:26:49;415136.00;1.38;715.83;35519.00;0.12;62.13;;;;;11.50;1.00;;;;;;2280171;61;1083;-87
2020/12/15 00:29:17;334002.00;1.11;576.36;0.00;0.00;0.62;;;;;11.10;1.00;;;;;;2269184;61;2010;-86
2020/12/15 00:31:44;233314.00;0.78;403.25;0.00;0.00;0.62;;;;;11.10;1.00;;;;;;2280160;61;1026;-86
2020/12/15 00:34:11;163120.00;0.54;282.41;0.00;0.00;0.62;;;;;11.40;1.00;;;;;;2280136;61;1046;-87
2020/12/15 00:36:37;293470.00;0.98;506.69;0.00;0.00;0.62;;;;;11.50;1.00;;;;;;2280134;61;1114;-87
2020/12/15 00:39:05;116900632.00;389.67;64710412.00;33597.00;0.11;58.81;;;;;11.50;1.00;;;;;;2280087;61;1666;-87
2020/12/15 00:41:31;268093.00;0.89;463.06;0.00;0.00;0.62;;;;;11.20;1.00;;;;;;2280131;61;1709;-87
2020/12/15 00:43:58;205736.00;0.69;355.80;0.00;0.00;0.62;;;;;11.20;1.00;;;;;;2280040;61;943;-87
2020/12/15 00:46:24;299152.00;1.00;516.46;0.00;0.00;0.62;;;;;11.20;1.00;;;;;;2281223;60;1066;-87
2020/12/15 00:48:50;229080.00;0.76;395.97;0.00;0.00;0.62;;;;;11.00;1.00;;;;;;2288736;60;1915;-87
2020/12/15 00:51:19;266653.00;0.89;460.59;0.00;0.00;0.62;;;;;10.70;1.00;;;;;;2288695;60;1313;-87
2020/12/15 00:53:46;389995.00;1.30;672.61;0.00;0.00;0.62;;;;;10.20;1.00;;;;;;2288794;60;948;-87
2020/12/15 00:56:15;297310.00;0.99;513.30;0.00;0.00;0.62;;;;;10.40;1.00;;;;;;2288729;60;1074;-88
2020/12/15 00:58:42;353555.00;1.18;609.97;0.00;0.00;0.62;;;;;10.70;1.00;;;;;;2288731;60;1090;-88
2020/12/15 01:01:09;222907.00;0.74;385.35;0.00;0.00;0.62;;;;;10.60;1.00;;;;;;2288657;60;1432;-88
2020/12/15 01:03:37;411228.00;1.37;709.11;82047.00;0.27;142.57;;;;;10.90;1.00;;;;;;2288690;60;1580;-88
2020/12/15 01:06:05;224456.00;0.75;388.01;0.00;0.00;0.62;;;;;11.10;1.00;;;;;;2288748;60;1005;-88
2020/12/15 01:11:55;286083.00;0.95;494.00;0.00;0.00;0.62;;;;;12.10;1.00;;;;;;2288749;60;666;-87
2020/12/15 01:14:22;563930.00;1.88;971.98;80922.00;0.27;140.63;;;;;12.30;1.00;;;;;;2288659;60;1142;-87
2020/12/15 01:16:48;719570.00;2.40;1241.19;75001.00;0.25;130.40;;;;;12.70;1.00;;;;;;2288688;60;907;-87
2020/12/15 01:19:14;746620.00;2.49;1288.18;83935.00;0.28;145.83;;;;;12.90;1.00;;;;;;2288641;60;1386;-88
2020/12/15 01:21:41;615664.00;2.05;1061.27;81252.00;0.27;141.20;;;;;13.00;1.00;;;;;;2288696;60;1015;-87
2020/12/15 01:24:07;582605.00;1.94;1004.19;80960.00;0.27;140.70;;;;;13.00;1.00;;;;;;2288500;60;1029;-87
2020/12/15 01:26:34;642545.00;2.14;1107.74;74193.00;0.25;129.01;;;;;13.30;1.00;;;;;;2288688;60;1105;-87
2020/12/15 01:29:01;657242.00;2.19;1133.17;76541.00;0.26;133.06;;;;;13.50;1.00;;;;;;2288563;60;1926;-88
2020/12/15 01:31:30;536683.00;1.79;925.01;83719.00;0.28;145.46;;;;;13.60;1.00;;;;;;2288689;60;972;-88
2020/12/15 01:33:57;649985.00;2.17;1120.61;75127.00;0.25;130.62;;;;;13.50;1.00;;;;;;2288585;60;1772;-87
2020/12/15 01:36:28;792506.00;2.64;1368.06;91870.00;0.31;159.54;;;;;13.10;1.00;;;;;;2288646;60;1116;-88
2020/12/15 01:38:55;740617.00;2.47;1277.75;80339.00;0.27;139.62;;;;;12.90;1.00;;;;;;2288628;60;1114;-86
2020/12/15 01:41:21;551671.00;1.84;950.84;83298.00;0.28;144.73;;;;;12.90;1.00;;;;;;2288515;60;1573;-86
2020/12/15 01:43:52;437989.00;1.46;755.12;83215.00;0.28;144.59;;;;;13.10;1.00;;;;;;2288489;60;1161;-87
2020/12/15 01:46:20;405276.00;1.35;698.88;0.00;0.00;0.62;;;;;13.40;1.00;;;;;;2288611;60;1098;-86
2020/12/15 01:48:47;414087.00;1.38;714.02;0.00;0.00;0.62;;;;;13.50;1.00;;;;;;2288553;60;1942;-86
2020/12/15 01:51:14;952847.00;3.18;1649.13;83477.00;0.28;145.04;;;;;13.40;1.00;;;;;;2288506;60;1564;-87
2020/12/15 01:53:40;356860.00;1.19;615.65;0.00;0.00;0.62;;;;;13.20;1.00;;;;;;2288524;60;996;-86
2020/12/15 01:56:07;670091.00;2.23;1155.41;0.00;0.00;0.62;;;;;13.30;1.00;;;;;;2288267;60;998;-87
2020/12/15 01:58:34;309248.00;1.03;533.82;0.00;0.00;0.62;;;;;13.40;1.00;;;;;;2288540;60;977;-86
2020/12/15 02:01:01;544706.00;1.82;938.83;65588.00;0.22;114.14;;;;;13.60;1.00;;;;;;2288531;60;1309;-86
2020/12/15 02:03:28;564869.00;1.88;973.60;82919.00;0.28;144.08;;;;;13.80;1.00;;;;;;2288530;60;1025;-86
2020/12/15 02:05:55;621109.00;2.07;1070.68;85730.00;0.29;148.93;;;;;13.80;1.00;;;;;;2288491;60;989;-87
2020/12/15 02:08:21;377470.00;1.26;651.08;76495.00;0.25;132.98;;;;;13.60;1.00;;;;;;2288424;60;1926;-86
2020/12/15 02:10:48;561302.00;1.87;967.45;62454.00;0.21;108.72;;;;;13.40;1.00;;;;;;2288459;60;1275;-88
2020/12/15 02:13:15;664727.00;2.22;1146.12;82817.00;0.28;143.90;;;;;13.30;1.00;;;;;;2288554;60;915;-87
2020/12/15 02:15:42;517596.00;1.73;892.12;79198.00;0.26;137.65;;;;;13.50;1.00;;;;;;2288484;60;1121;-87
2020/12/15 02:18:08;717526.00;2.39;1237.64;85954.00;0.29;149.32;;;;;13.70;1.00;;;;;;2288390;60;1043;-88
2020/12/15 02:20:38;555980.00;1.85;958.27;77940.00;0.26;135.48;;;;;13.80;1.00;;;;;;2288443;60;1386;-87
2020/12/15 02:23:05;434678.00;1.45;749.43;81852.00;0.27;142.24;;;;;13.70;1.00;;;;;;2288483;60;995;-87
2020/12/15 02:25:31;516408.00;1.72;890.08;75350.00;0.25;131.00;;;;;13.50;1.00;;;;;;2288474;60;1125;-87
2020/12/15 02:27:58;534278.00;1.78;920.86;101941.00;0.34;176.92;;;;;13.70;1.00;;;;;;2288410;60;1993;-87
2020/12/15 02:30:24;619079.00;2.06;1067.17;72569.00;0.24;126.20;;;;;13.60;1.00;;;;;;2288388;60;1292;-87
2020/12/15 02:32:51;955936.00;3.19;1654.58;176405.00;0.59;305.30;;;;;13.30;1.00;;;;;;2288456;60;900;-86
2020/12/15 02:35:18;525589.00;1.75;905.89;74945.00;0.25;130.30;;;;;13.00;1.00;;;;;;2288458;60;1029;-87
2020/12/15 02:37:44;631746.00;2.11;1089.07;70823.00;0.24;123.18;;;;;13.10;1.00;;;;;;2288476;60;1029;-87
2020/12/15 02:40:12;765708.00;2.55;1321.38;74765.00;0.25;129.99;;;;;13.00;1.00;;;;;;2288415;60;1281;-87
2020/12/15 02:42:38;881789.00;2.94;1524.16;163509.00;0.55;283.08;;;;;12.60;1.00;;;;;;2288397;60;986;-87
2020/12/15 02:45:05;752570.00;2.51;1298.53;78068.00;0.26;135.70;;;;;12.30;1.00;;;;;;2288335;60;1014;-86
2020/12/15 02:47:31;617003.00;2.06;1063.59;79518.00;0.27;138.20;;;;;12.40;1.00;;;;;;2288422;60;987;-87
2020/12/15 02:49:58;476672.00;1.59;821.67;80649.00;0.27;140.16;;;;;12.50;1.00;;;;;;2288334;60;2009;-87
2020/12/15 02:55:47;208168.00;0.69;359.98;0.00;0.00;0.62;;;;;12.90;1.00;;;;;;2288405;60;1093;-87
2020/12/15 02:58:14;477683.00;1.59;823.41;81328.00;0.27;141.33;;;;;12.50;1.00;;;;;;2288361;60;1052;-87
2020/12/15 03:00:40;503221.00;1.68;867.37;80944.00;0.27;140.67;;;;;12.60;1.00;;;;;;2288124;60;1664;-86
2020/12/15 03:03:06;687480.00;2.29;1185.53;94800.00;0.32;164.60;;;;;13.00;1.00;;;;;;2288312;60;1742;-87
2020/12/15 03:05:33;388542.00;1.30;670.11;76036.00;0.25;132.19;;;;;13.10;1.00;;;;;;2288372;60;952;-87
2020/12/15 03:07:59;380436.00;1.27;656.17;75356.00;0.25;131.01;;;;;13.20;1.00;;;;;;2288989;60;1123;-87
2020/12/15 03:10:26;569465.00;1.90;981.52;74913.00;0.25;130.25;;;;;13.30;1.00;;;;;;2288969;60;1997;-86
2020/12/15 03:12:53;634772.00;2.12;1094.30;73503.00;0.25;127.81;;;;;12.90;1.00;;;;;;2289063;60;1134;-86
2020/12/15 03:15:20;477577.00;1.59;823.23;82611.00;0.28;143.55;;;;;12.50;1.00;;;;;;2289080;60;1113;-87
2020/12/15 03:17:46;323619.00;1.08;558.52;77902.00;0.26;135.41;;;;;12.50;1.00;;;;;;2288978;60;1017;-88
2020/12/15 03:20:12;656775.00;2.19;1132.36;114317.00;0.38;198.28;;;;;12.00;1.00;;;;;;2288938;60;1610;-87
2020/12/15 03:22:39;399245.00;1.33;688.51;60231.00;0.20;104.88;;;;;11.20;1.00;;;;;;2288986;60;1685;-86
2020/12/15 03:25:05;409518.00;1.37;706.17;71443.00;0.24;124.25;;;;;11.30;1.00;;;;;;2289076;60;923;-87
2020/12/15 03:27:32;539752.00;1.80;930.30;84656.00;0.28;147.08;;;;;11.40;1.00;;;;;;2288990;60;1047;-86
2020/12/15 03:29:59;444720.00;1.48;766.70;78072.00;0.26;135.71;;;;;11.80;1.00;;;;;;2288891;60;2031;-87
2020/12/15 03:32:25;457573.00;1.53;788.81;80891.00;0.27;140.58;;;;;12.00;1.00;;;;;;2288941;60;1698;-87
2020/12/15 03:34:52;273380.00;0.91;472.16;77784.00;0.26;135.21;;;;;12.50;1.00;;;;;;2289017;60;1110;-87
2020/12/15 03:37:19;419158.00;1.40;722.74;82234.00;0.27;142.90;;;;;12.90;1.00;;;;;;2289000;60;1050;-87
2020/12/15 03:39:45;522008.00;1.74;899.72;84738.00;0.28;147.22;;;;;12.60;1.00;;;;;;2288750;60;1510;-87
2020/12/15 03:42:12;406669.00;1.36;701.27;84443.00;0.28;146.71;;;;;12.80;1.00;;;;;;2288848;60;1024;-87
2020/12/15 03:44:39;290603.00;0.97;501.77;84549.00;0.28;146.89;;;;;13.10;1.00;;;;;;2288946;60;998;-87
2020/12/15 03:47:07;283560.00;0.95;489.66;86030.00;0.29;149.45;;;;;13.20;1.00;;;;;;2288964;60;1145;-87
2020/12/15 03:49:33;299152.00;1.00;516.46;82906.00;0.28;144.06;;;;;13.10;1.00;;;;;;2288844;60;2009;-88
2020/12/15 03:51:59;299271.00;1.00;516.67;81653.00;0.27;141.89;;;;;13.30;1.00;;;;;;2288955;60;1042;-87
2020/12/15 03:54:26;306318.00;1.02;528.78;74551.00;0.25;129.62;;;;;13.70;1.00;;;;;;2288926;60;1275;-87
2020/12/15 03:56:52;452789.00;1.51;780.58;80934.00;0.27;140.65;;;;;13.70;1.00;;;;;;2288945;60;1116;-87
2020/12/15 03:59:19;107920.00;0.36;187.24;0.00;0.00;0.62;;;;;13.40;1.00;;;;;;2288936;60;1407;-87
2020/12/15 04:01:45;150084.00;0.50;259.95;0.00;0.00;0.62;;;;;13.20;1.00;;;;;;2288914;60;1123;-87
2020/12/15 04:04:12;186816.00;0.62;323.23;0.00;0.00;0.62;;;;;12.90;1.00;;;;;;2288814;60;1418;-87
2020/12/15 04:06:39;205272.00;0.68;355.00;0.00;0.00;0.62;;;;;12.30;1.00;;;;;;2288786;60;1655;-87
2020/12/15 04:09:05;148407.00;0.49;257.06;0.00;0.00;0.62;;;;;12.40;1.00;;;;;;2288719;60;1919;-87
2020/12/15 04:11:32;187877.00;0.63;325.05;0.00;0.00;0.62;;;;;12.40;1.00;;;;;;2288841;60;1122;-87
2020/12/15 04:13:58;240415.00;0.80;415.47;0.00;0.00;0.62;;;;;12.30;1.00;;;;;;2288734;60;1130;-86
2020/12/15 04:16:25;166345.00;0.55;287.97;0.00;0.00;0.62;;;;;12.00;1.00;;;;;;2288876;60;1019;-87
2020/12/15 04:18:51;165928.00;0.55;287.25;0.00;0.00;0.62;;;;;11.90;1.00;;;;;;2288655;60;1023;-87
2020/12/15 04:21:18;302165.00;1.01;521.64;0.00;0.00;0.62;;;;;11.80;1.00;;;;;;2288873;60;1186;-87
2020/12/15 04:23:45;243704.00;0.81;421.12;0.00;0.00;0.62;;;;;11.60;1.00;;;;;;2288837;60;1074;-87
2020/12/15 04:26:11;187215.00;0.62;323.91;0.00;0.00;0.62;;;;;11.80;1.00;;;;;;2288325;60;1066;-87
2020/12/15 04:28:38;127192.00;0.42;220.49;0.00;0.00;0.62;;;;;11.50;1.00;;;;;;2288813;60;1918;-87
2020/12/15 04:31:04;182433.00;0.61;315.68;0.00;0.00;0.62;;;;;11.60;1.00;;;;;;2288806;60;1306;-87
2020/12/15 04:33:30;220790.00;0.74;381.70;0.00;0.00;0.62;;;;;11.60;1.00;;;;;;2281644;60;931;-86
2020/12/15 04:35:57;78156.00;0.26;135.85;0.00;0.00;0.62;;;;;11.60;1.00;;;;;;2288839;60;1029;-87
2020/12/15 04:38:25;91776.00;0.31;159.37;0.00;0.00;0.62;;;;;11.80;1.00;;;;;;2288774;60;1102;-87
2020/12/15 04:40:52;200971.00;0.67;347.60;0.00;0.00;0.62;;;;;12.10;1.00;;;;;;2288675;60;1664;-87
2020/12/15 04:43:21;266977.00;0.89;461.15;0.00;0.00;0.62;;;;;12.20;1.00;;;;;;2288685;60;1732;-87
2020/12/15 04:45:48;360489.00;1.20;621.89;0.00;0.00;0.62;;;;;12.50;1.00;;;;;;2288737;60;1670;-87
2020/12/15 04:48:22;207627.00;0.69;359.05;0.00;0.00;0.62;;;;;12.80;1.00;;;;;;2288722;60;1113;-88
2020/12/15 04:50:52;397225.00;1.32;685.03;30824.00;0.10;54.01;;;;;13.10;1.00;;;;;;2288736;60;1324;-86
2020/12/15 04:53:23;196548.00;0.66;339.98;0.00;0.00;0.62;;;;;13.20;1.00;;;;;;2288761;60;1066;-87
2020/12/15 04:55:52;310487.00;1.03;535.95;0.00;0.00;0.62;;;;;12.80;1.00;;;;;;2288754;60;1175;-87
2020/12/15 04:58:21;274794.00;0.92;474.59;0.00;0.00;0.62;;;;;12.70;1.00;;;;;;2288703;60;1096;-88
2020/12/15 05:00:49;427211.00;1.42;736.59;0.00;0.00;0.62;;;;;12.60;1.00;;;;;;2288691;60;1389;-87
2020/12/15 05:03:21;193710.00;0.65;335.10;0.00;0.00;0.62;;;;;12.80;1.00;;;;;;2288566;60;1101;-87
2020/12/15 05:05:50;137804.00;0.46;238.79;0.00;0.00;0.62;;;;;12.90;1.00;;;;;;2288733;60;1008;-87
2020/12/15 05:08:17;280904.00;0.94;485.09;0.00;0.00;0.62;;;;;12.80;1.00;;;;;;2288649;60;1010;-87
2020/12/15 05:10:44;277941.00;0.93;480.00;0.00;0.00;0.62;;;;;12.60;1.00;;;;;;2288527;60;1383;-87
2020/12/15 05:13:11;336273.00;1.12;580.27;0.00;0.00;0.62;;;;;12.10;1.00;;;;;;2288710;60;1152;-86
2020/12/15 05:15:38;287185.00;0.96;495.89;0.00;0.00;0.62;;;;;11.70;1.00;;;;;;2288730;60;907;-88
2020/12/15 05:18:05;265004.00;0.88;457.75;0.00;0.00;0.62;;;;;11.90;1.00;;;;;;2288688;60;926;-88
2020/12/15 05:20:33;231976.00;0.77;400.95;0.00;0.00;0.62;;;;;12.10;1.00;;;;;;2288639;60;1383;-88
2020/12/15 05:23:00;211375.00;0.70;365.50;0.00;0.00;0.62;;;;;12.60;1.00;;;;;;2288696;60;961;-88
2020/12/15 05:25:28;257539.00;0.86;444.92;0.00;0.00;0.62;;;;;13.10;1.00;;;;;;2288553;60;1752;-89
2020/12/15 05:27:56;274787.00;0.92;474.57;0.00;0.00;0.62;;;;;13.40;1.00;;;;;;2288650;60;1113;-89
2020/12/15 05:30:24;235193.00;0.78;406.48;0.00;0.00;0.62;;;;;13.30;1.00;;;;;;2288575;60;2001;-89
2020/12/15 05:32:53;303959.00;1.01;524.73;0.00;0.00;0.62;;;;;13.20;1.00;;;;;;2288660;60;988;-89
2020/12/15 05:35:27;274800.00;0.92;474.60;0.00;0.00;0.62;;;;;13.10;1.00;;;;;;2288643;60;1075;-88
2020/12/15 05:37:54;193400.00;0.64;334.56;0.00;0.00;0.62;;;;;13.20;1.00;;;;;;2288633;60;933;-88
2020/12/15 05:40:21;204346.00;0.68;353.40;0.00;0.00;0.62;;;;;12.90;1.00;;;;;;2288582;60;1277;-88
2020/12/15 05:42:54;161875.00;0.54;280.27;0.00;0.00;0.62;;;;;13.20;1.00;;;;;;2288613;60;1117;-87
2020/12/15 05:45:23;189379.00;0.63;327.64;0.00;0.00;0.62;;;;;13.50;1.00;;;;;;2288610;60;1157;-86
2020/12/15 05:47:51;272978.00;0.91;471.46;26885.00;0.09;47.19;;;;;13.40;1.00;;;;;;2288594;60;1018;-85
2020/12/15 05:50:24;292985.00;0.98;505.86;0.00;0.00;0.62;;;;;13.40;1.00;;;;;;2288494;60;1928;-87
2020/12/15 05:52:56;273924.00;0.91;473.09;0.00;0.00;0.62;;;;;13.70;1.00;;;;;;2288580;60;1267;-86
2020/12/15 05:55:23;179565.00;0.60;310.74;0.00;0.00;0.62;;;;;13.40;1.00;;;;;;2288552;60;1044;-87
2020/12/15 05:57:50;201275.00;0.67;348.12;0.00;0.00;0.62;;;;;13.60;1.00;;;;;;2288543;60;988;-88
2020/12/15 06:00:17;196179.00;0.65;339.35;0.00;0.00;0.62;;;;;13.70;1.00;;;;;;2288509;60;1389;-87
2020/12/15 06:02:45;265590.00;0.89;458.76;0.00;0.00;0.62;;;;;13.80;1.00;;;;;;2288474;60;1077;-87
2020/12/15 06:05:11;129383.00;0.43;224.27;0.00;0.00;0.62;;;;;13.70;1.00;;;;;;2288547;60;1071;-88
2020/12/15 06:07:38;141089.00;0.47;244.45;0.00;0.00;0.62;;;;;13.70;1.00;;;;;;2288518;60;966;-87
2020/12/15 06:10:06;234977.00;0.78;406.11;0.00;0.00;0.62;;;;;13.80;1.00;;;;;;2288386;60;2017;-86
2020/12/15 06:12:33;297059.00;0.99;512.86;0.00;0.00;0.62;;;;;13.70;1.00;;;;;;2288408;60;1138;-87
2020/12/15 06:14:59;294926.00;0.98;509.20;0.00;0.00;0.62;;;;;13.60;1.00;;;;;;2288441;60;1120;-87
2020/12/15 06:17:27;179627.00;0.60;310.85;0.00;0.00;0.62;;;;;13.70;1.00;;;;;;2288297;60;1630;-87
2020/12/15 06:19:57;257163.00;0.86;444.27;0.00;0.00;0.62;;;;;13.70;1.00;;;;;;2288329;60;1414;-87
2020/12/15 06:22:25;211024.00;0.70;364.90;0.00;0.00;0.62;;;;;13.70;1.00;;;;;;2288375;60;963;-87
2020/12/15 06:24:59;223704.00;0.75;386.72;0.00;0.00;0.62;;;;;13.60;1.00;;;;;;2288431;60;1057;-87
2020/12/15 06:27:31;210478.00;0.70;363.96;0.00;0.00;0.62;;;;;13.60;1.00;;;;;;2288490;60;924;-87
2020/12/15 06:29:57;181657.00;0.61;314.34;0.00;0.00;0.62;;;;;13.60;1.00;;;;;;2288263;60;1990;-87
2020/12/15 06:32:24;223885.00;0.75;387.03;0.00;0.00;0.62;;;;;13.70;1.00;;;;;;2288299;60;1119;-87
2020/12/15 06:34:52;348846.00;1.16;601.88;0.00;0.00;0.62;;;;;13.70;1.00;;;;;;2288225;60;1056;-87
2020/12/15 06:37:21;200362.00;0.67;346.55;0.00;0.00;0.62;;;;;13.60;1.00;;;;;;2288354;60;1120;-87
2020/12/15 06:39:59;180470.00;0.60;312.30;0.00;0.00;0.62;;;;;13.70;1.00;;;;;;2288365;60;1302;-87
2020/12/15 06:42:26;278288.00;0.93;480.59;0.00;0.00;0.62;;;;;13.70;1.00;;;;;;2288986;60;1087;-87
2020/12/15 06:45:06;216684.00;0.72;374.64;0.00;0.00;0.62;;;;;13.70;1.00;;;;;;2289133;60;1130;-87
2020/12/15 06:47:34;184755.00;0.62;319.68;0.00;0.00;0.62;;;;;13.40;1.00;;;;;;2289143;60;1132;-86
2020/12/15 06:50:15;309616.00;1.03;534.45;25135.00;0.08;44.16;;;;;13.40;1.00;;;;;;2289102;60;1913;-87
2020/12/15 06:52:42;145970.00;0.49;252.86;0.00;0.00;0.62;;;;;12.70;1.00;;;;;;2289173;60;1050;-87
2020/12/15 06:55:09;254047.00;0.85;438.91;0.00;0.00;0.62;;;;;12.60;1.00;;;;;;2289005;60;1660;-87
2020/12/15 06:57:38;229839.00;0.77;397.27;0.00;0.00;0.62;;;;;12.90;1.00;;;;;;2289150;60;1028;-89
2020/12/15 07:00:08;237159.00;0.79;409.86;0.00;0.00;0.62;;;;;13.00;1.00;;;;;;2289109;60;1401;-87
2020/12/15 07:02:35;360492.00;1.20;621.89;0.00;0.00;0.62;;;;;13.40;1.00;;;;;;2289117;60;1002;-87
2020/12/15 07:05:19;347603.00;1.16;599.74;0.00;0.00;0.62;;;;;13.40;1.00;;;;;;2289058;60;964;-88
2020/12/15 07:07:51;311227.00;1.04;537.22;0.00;0.00;0.62;;;;;13.50;1.00;;;;;;2289040;60;1109;-88
2020/12/15 07:10:19;279854.00;0.93;483.29;0.00;0.00;0.62;;;;;13.20;1.00;;;;;;2288975;60;2002;-88
2020/12/15 07:12:48;173878.00;0.58;300.95;0.00;0.00;0.62;;;;;12.80;1.00;;;;;;2288700;60;966;-87
2020/12/15 07:15:16;187590.00;0.63;324.56;0.00;0.00;0.62;;;;;13.20;1.00;;;;;;2289071;60;1019;-87
2020/12/15 07:17:46;337714.00;1.13;582.74;0.00;0.00;0.62;;;;;13.00;1.00;;;;;;2288997;60;1003;-89
2020/12/15 07:20:13;302061.00;1.01;521.46;0.00;0.00;0.62;;;;;12.80;1.00;;;;;;2288950;60;1285;-88
2020/12/15 07:22:40;299452.00;1.00;516.98;0.00;0.00;0.62;;;;;13.10;1.00;;;;;;2288950;60;1128;-88
2020/12/15 07:25:09;210125.00;0.70;363.35;0.00;0.00;0.62;;;;;13.40;1.00;;;;;;2288983;60;1063;-87
2020/12/15 07:27:36;269767.00;0.90;465.94;0.00;0.00;0.62;;;;;13.60;1.00;;;;;;2288974;60;1154;-87
2020/12/15 07:30:07;160452.00;0.53;277.82;0.00;0.00;0.62;;;;;13.80;1.00;;;;;;2288936;60;1923;-87
2020/12/15 07:32:36;155893.00;0.52;269.96;0.00;0.00;0.62;;;;;13.80;1.00;;;;;;2289068;60;1070;-87
2020/12/15 07:35:05;236115.00;0.79;408.07;0.00;0.00;0.62;;;;;13.80;1.00;;;;;;2288930;60;1013;-87
2020/12/15 07:37:35;425367.00;1.42;733.42;0.00;0.00;0.62;;;;;13.70;1.00;;;;;;2288968;60;948;-88
2020/12/15 07:40:04;279472.00;0.93;482.63;0.00;0.00;0.62;;;;;13.20;1.00;;;;;;2288734;60;1588;-88
2020/12/15 07:42:32;186005.00;0.62;321.83;0.00;0.00;0.62;;;;;13.30;1.00;;;;;;2288896;60;972;-88
2020/12/15 07:45:00;281709.00;0.94;486.48;0.00;0.00;0.62;;;;;13.60;1.00;;;;;;2288983;60;1097;-88
2020/12/15 07:47:28;293197.00;0.98;506.23;0.00;0.00;0.62;;;;;13.70;1.00;;;;;;2288890;60;1026;-87
2020/12/15 07:49:56;267981.00;0.89;462.87;0.00;0.00;0.62;;;;;13.50;1.00;;;;;;2288834;60;1911;-87
2020/12/15 07:52:33;186584.00;0.62;322.83;0.00;0.00;0.62;;;;;13.40;1.00;;;;;;2288680;60;1082;-88
2020/12/15 07:55:01;332265.00;1.11;573.38;0.00;0.00;0.62;;;;;13.50;1.00;;;;;;2288468;60;1016;-88
2020/12/15 07:57:32;200704.00;0.67;347.14;0.00;0.00;0.62;;;;;13.20;1.00;;;;;;2288667;60;1073;-88
2020/12/15 08:00:06;330946.00;1.10;571.11;0.00;0.00;0.62;;;;;13.40;1.00;;;;;;2288797;60;1449;-88
2020/12/15 08:02:32;262612.00;0.88;453.64;0.00;0.00;0.62;;;;;13.30;1.00;;;;;;2288893;60;1085;-88
2020/12/15 08:05:13;236545.00;0.79;408.81;0.00;0.00;0.62;;;;;13.60;1.00;;;;;;2288942;60;1152;-87
2020/12/15 08:07:43;189764.00;0.63;328.30;0.00;0.00;0.62;;;;;14.00;1.00;;;;;;2288883;60;1171;-87
2020/12/15 08:10:10;446174.00;1.49;769.20;62981.00;0.21;109.63;;;;;14.00;1.00;;;;;;2288772;60;1978;-87
2020/12/15 08:12:40;298279.00;0.99;514.96;0.00;0.00;0.62;;;;;14.30;1.00;;;;;;2288783;60;1191;-88
2020/12/15 08:15:08;234296.00;0.78;404.94;0.00;0.00;0.62;;;;;14.30;1.00;;;;;;2288795;60;1058;-87
2020/12/15 08:17:38;163844.00;0.55;283.66;0.00;0.00;0.62;;;;;14.20;1.00;;;;;;2288890;60;1121;-87
2020/12/15 08:20:07;264337.00;0.88;456.61;0.00;0.00;0.62;;;;;13.20;1.00;;;;;;2288803;60;1354;-87
2020/12/15 08:22:39;228891.00;0.76;395.64;0.00;0.00;0.62;;;;;12.90;1.00;;;;;;2288676;60;1547;-87
2020/12/15 08:25:08;211348.00;0.70;365.46;0.00;0.00;0.62;;;;;12.70;1.00;;;;;;2288848;60;1142;-87
2020/12/15 08:27:35;252064.00;0.84;435.50;49622.00;0.17;86.53;;;;;12.50;1.00;;;;;;2288876;60;929;-87
2020/12/15 08:30:14;258059.00;0.86;445.81;0.00;0.00;0.62;;;;;12.50;1.00;;;;;;2288783;60;2006;-86
2020/12/15 08:32:46;478062.00;1.59;824.06;77720.00;0.26;135.10;;;;;12.70;1.00;;;;;;2288901;60;1022;-88
2020/12/15 08:35:13;526251.00;1.75;907.03;84562.00;0.28;146.92;;;;;12.60;1.00;;;;;;2288860;60;933;-88
2020/12/15 08:37:43;409635.00;1.37;706.37;79737.00;0.27;138.58;;;;;12.50;1.00;;;;;;2288832;60;1097;-87
2020/12/15 08:40:12;594798.00;1.98;1025.24;82471.00;0.27;143.31;;;;;12.50;1.00;;;;;;2275994;61;1325;-87
2020/12/15 08:42:43;371113.00;1.24;640.15;84854.00;0.28;147.42;;;;;12.70;1.00;;;;;;2276127;61;998;-87
2020/12/15 08:45:15;525797.00;1.75;906.25;85633.00;0.29;148.77;;;;;12.80;1.00;;;;;;2276093;61;1053;-87
2020/12/15 08:47:48;453435.00;1.51;781.69;86101.00;0.29;149.57;;;;;12.90;1.00;;;;;;2276130;61;1058;-88
2020/12/15 08:50:16;714240.00;2.38;1231.94;72804.00;0.24;126.61;;;;;12.50;1.00;;;;;;2276037;61;1988;-87
2020/12/15 08:52:44;594461.00;1.98;1024.66;75755.00;0.25;131.70;;;;;12.80;1.00;;;;;;2276074;61;1152;-87
2020/12/15 08:55:10;522610.00;1.74;900.76;82131.00;0.27;142.72;;;;;12.70;1.00;;;;;;2276010;61;1066;-87
2020/12/15 08:57:37;504302.00;1.68;869.23;77168.00;0.26;134.15;;;;;12.60;1.00;;;;;;2279266;60;1612;-86
2020/12/15 09:00:16;388055.00;1.29;669.27;69868.00;0.23;121.53;;;;;12.70;1.00;;;;;;2288719;60;1402;-86
2020/12/15 09:02:43;289877.00;0.97;500.52;0.00;0.00;0.62;;;;;12.70;1.00;;;;;;2288714;60;969;-87
2020/12/15 09:05:11;641607.00;2.14;1106.12;84313.00;0.28;146.49;;;;;13.20;1.00;;;;;;2288467;60;1670;-87
2020/12/15 09:07:39;415078.00;1.38;715.73;84687.00;0.28;147.13;;;;;13.40;1.00;;;;;;2288616;60;916;-87
2020/12/15 09:10:15;647108.00;2.16;1115.63;95066.00;0.32;165.05;;;;;13.70;1.00;;;;;;2288592;60;1915;-87
2020/12/15 09:12:47;639619.00;2.13;1102.68;72571.00;0.24;126.20;;;;;14.00;1.00;;;;;;2288675;60;1128;-87
2020/12/15 09:15:15;405146.00;1.35;698.65;0.00;0.00;0.62;;;;;13.80;1.00;;;;;;2288649;60;1040;-88
2020/12/15 09:17:42;616551.00;2.06;1062.81;0.00;0.00;0.62;;;;;14.00;1.00;;;;;;2288658;60;987;-88
2020/12/15 09:20:09;269542.00;0.90;465.56;0.00;0.00;0.62;;;;;14.10;1.00;;;;;;2288478;60;1367;-88
2020/12/15 09:22:39;388272.00;1.29;669.64;0.00;0.00;0.62;;;;;14.20;1.00;;;;;;2288570;60;1094;-88
2020/12/15 09:25:12;291334.00;0.97;503.02;0.00;0.00;0.62;;;;;14.50;1.00;;;;;;2288582;60;1037;-89
2020/12/15 09:27:38;410372.00;1.37;707.64;0.00;0.00;0.62;;;;;14.60;1.00;;;;;;2288595;60;1054;-88
2020/12/15 09:30:05;116752216.00;389.17;64464040.00;0.00;0.00;0.62;;;;;14.80;1.00;;;;;;2288578;60;1990;-88
2020/12/15 09:32:33;449431.00;1.50;774.80;0.00;0.00;0.62;;;;;14.90;1.00;;;;;;2288631;60;1019;-88
2020/12/15 09:35:00;308710.00;1.03;532.89;0.00;0.00;0.62;;;;;15.10;1.00;;;;;;2288457;60;1574;-89
2020/12/15 09:37:26;320741.00;1.07;553.57;0.00;0.00;0.62;;;;;15.10;1.00;;;;;;2288590;60;1089;-88
2020/12/15 09:39:53;457268.00;1.52;788.28;0.00;0.00;0.62;;;;;14.60;1.00;;;;;;2288607;60;1365;-88
2020/12/15 09:42:20;456715.00;1.52;787.33;0.00;0.00;0.62;;;;;14.10;1.00;;;;;;2288604;60;1210;-88
2020/12/15 09:44:47;509350.00;1.70;877.92;0.00;0.00;0.62;;;;;14.10;1.00;;;;;;2288541;60;1040;-88
2020/12/15 09:47:13;459245.00;1.53;791.69;0.00;0.00;0.62;;;;;14.10;1.00;;;;;;2288568;60;1057;-88
2020/12/15 09:49:41;408594.00;1.36;704.58;0.00;0.00;0.62;;;;;14.00;1.00;;;;;;2288482;60;1909;-88
2020/12/15 09:52:07;451739.00;1.51;778.77;0.00;0.00;0.62;;;;;14.20;1.00;;;;;;2288521;60;1086;-89
2020/12/15 09:54:34;455453.00;1.52;785.16;0.00;0.00;0.62;;;;;14.10;1.00;;;;;;2288512;60;1017;-89
2020/12/15 09:57:00;457877.00;1.53;789.33;0.00;0.00;0.62;;;;;14.20;1.00;;;;;;2288396;60;1093;-88